Time;durP1;ratioP1;P1;durP2;ratioP2;P2;SDS_P1;SDS_P2;PMS_P1;PMS_P2;Temp;Humidity;BMP_temperature;BMP_pressure;BME280_temperature;BME280_humidity;BME280_pressure;Samples;Min_cycle;Max_cycle;Signal;HPM_P1;HPM_P2
2021/10/27 00:02:25;;;;;;;207.00;196.80;;;13.90;99.90;;;;;;4363357;32;20141;-64
2021/10/27 00:04:51;;;;;;;203.30;192.77;;;13.90;99.90;;;;;;4362155;32;20155;-64
2021/10/27 00:07:18;;;;;;;211.13;200.37;;;13.90;99.90;;;;;;4363635;32;20560;-62
2021/10/27 00:09:47;;;;;;;196.20;186.57;;;13.90;99.90;;;;;;4361137;33;20211;-63
2021/10/27 00:12:15;;;;;;;185.83;176.03;;;13.90;99.90;;;;;;4363277;32;20184;-62
2021/10/27 00:14:43;;;;;;;191.23;181.83;;;14.00;99.90;;;;;;4361404;32;20167;-63
2021/10/27 00:17:10;;;;;;;194.40;184.70;;;14.00;99.90;;;;;;4354600;33;20224;-62
2021/10/27 00:19:37;;;;;;;185.40;175.90;;;14.00;99.90;;;;;;4361517;33;20165;-63
2021/10/27 00:22:04;;;;;;;180.20;171.27;;;14.00;99.90;;;;;;4360805;32;20169;-63
2021/10/27 00:24:31;;;;;;;176.27;167.50;;;14.10;99.90;;;;;;4361058;33;20228;-63
2021/10/27 00:26:58;;;;;;;180.63;171.77;;;14.00;99.90;;;;;;4363144;32;20228;-64
2021/10/27 00:29:27;;;;;;;185.60;177.13;;;14.00;99.90;;;;;;4361553;33;20171;-63
2021/10/27 00:31:55;;;;;;;185.67;176.80;;;14.00;99.90;;;;;;4363096;32;20180;-63
2021/10/27 00:34:22;;;;;;;174.37;165.77;;;14.00;99.90;;;;;;4362459;32;20303;-63
2021/10/27 00:36:49;;;;;;;178.70;170.03;;;14.00;99.90;;;;;;4362777;32;20538;-63
2021/10/27 00:39:19;;;;;;;179.93;171.37;;;14.00;99.90;;;;;;4362182;33;20153;-63
2021/10/27 00:41:46;;;;;;;181.17;172.43;;;14.00;99.90;;;;;;4361782;33;20169;-63
2021/10/27 00:44:20;;;;;;;165.97;158.07;;;14.10;99.90;;;;;;4361584;33;20238;-64
2021/10/27 00:46:47;;;;;;;168.67;160.13;;;14.10;99.90;;;;;;4362023;32;20177;-62
2021/10/27 00:49:15;;;;;;;160.67;152.63;;;14.20;99.90;;;;;;4361019;32;20148;-63
2021/10/27 00:51:42;;;;;;;152.00;144.20;;;14.20;99.90;;;;;;4360066;32;20668;-63
2021/10/27 00:54:09;;;;;;;157.57;149.40;;;14.20;99.90;;;;;;4358806;33;20224;-62
2021/10/27 00:56:37;;;;;;;160.93;153.40;;;14.10;99.90;;;;;;4361346;32;20147;-62
2021/10/27 00:59:05;;;;;;;150.10;143.23;;;14.20;99.90;;;;;;4361318;32;20245;-63
2021/10/27 01:01:35;;;;;;;166.03;158.10;;;14.10;99.90;;;;;;4361292;32;20168;-63
2021/10/27 01:04:02;;;;;;;162.30;154.40;;;14.10;99.90;;;;;;4360819;33;20156;-63
2021/10/27 01:06:30;;;;;;;164.57;156.17;;;14.20;99.90;;;;;;4360782;32;20164;-62
2021/10/27 01:08:57;;;;;;;176.03;166.90;;;14.10;99.90;;;;;;4362153;32;20223;-63
2021/10/27 01:11:24;;;;;;;168.40;160.40;;;14.10;99.90;;;;;;4362060;32;20267;-63
2021/10/27 01:13:51;;;;;;;182.97;174.13;;;14.10;99.90;;;;;;4358049;33;20649;-63
2021/10/27 01:16:18;;;;;;;170.37;162.07;;;14.10;99.90;;;;;;4360562;33;20153;-64
2021/10/27 01:18:45;;;;;;;188.63;178.97;;;14.10;99.90;;;;;;4359051;32;20237;-62
2021/10/27 01:21:13;;;;;;;200.50;191.07;;;14.00;99.90;;;;;;4362028;32;20522;-63
2021/10/27 01:23:40;;;;;;;209.20;199.10;;;14.00;99.90;;;;;;4361878;32;20180;-63
2021/10/27 01:26:08;;;;;;;216.87;206.27;;;13.90;99.90;;;;;;4361220;33;20167;-64
2021/10/27 01:28:40;;;;;;;218.83;208.87;;;13.90;99.90;;;;;;4360385;32;20146;-62
2021/10/27 01:31:07;;;;;;;228.53;218.10;;;13.90;99.90;;;;;;4361891;32;20689;-63
2021/10/27 01:33:34;;;;;;;231.97;220.57;;;13.80;99.90;;;;;;4361921;32;20156;-64
2021/10/27 01:36:01;;;;;;;221.43;211.00;;;13.80;99.90;;;;;;4360952;33;20228;-63
2021/10/27 01:38:29;;;;;;;228.93;218.30;;;13.80;99.90;;;;;;4359355;32;20172;-63
2021/10/27 01:40:56;;;;;;;232.60;221.90;;;13.80;99.90;;;;;;4361175;32;20232;-62
2021/10/27 01:43:23;;;;;;;236.27;225.37;;;13.80;99.90;;;;;;4361090;32;20253;-63
2021/10/27 01:45:50;;;;;;;231.60;220.87;;;13.90;99.90;;;;;;4361190;32;20569;-63
2021/10/27 01:48:16;;;;;;;227.10;216.83;;;14.00;99.90;;;;;;4360467;33;20254;-62
2021/10/27 01:50:44;;;;;;;228.87;217.63;;;14.00;99.90;;;;;;4361902;32;20470;-63
2021/10/27 01:53:12;;;;;;;224.40;214.17;;;14.00;99.90;;;;;;4360185;33;20216;-62
2021/10/27 01:55:40;;;;;;;227.67;216.77;;;14.00;99.90;;;;;;4358613;33;20157;-63
2021/10/27 01:58:07;;;;;;;215.20;204.90;;;14.00;99.90;;;;;;4359890;32;20149;-64
2021/10/27 02:00:36;;;;;;;224.83;214.70;;;14.10;99.90;;;;;;4355534;32;20211;-63
2021/10/27 02:03:03;;;;;;;221.53;211.43;;;14.10;99.90;;;;;;4360943;33;20253;-60
2021/10/27 02:05:30;;;;;;;216.20;205.67;;;14.00;99.90;;;;;;4360557;32;20163;-63
2021/10/27 02:07:59;;;;;;;226.47;216.10;;;14.00;99.90;;;;;;4360200;32;20160;-63
2021/10/27 02:10:26;;;;;;;232.43;221.37;;;13.90;99.90;;;;;;4359716;33;20164;-62
2021/10/27 02:12:54;;;;;;;225.97;215.57;;;13.90;99.90;;;;;;4360593;33;20259;-62
2021/10/27 02:15:20;;;;;;;239.97;228.90;;;13.80;99.90;;;;;;4356894;33;20223;-63
2021/10/27 02:17:47;;;;;;;236.10;224.80;;;13.80;99.90;;;;;;4359302;32;20223;-63
2021/10/27 02:20:15;;;;;;;241.67;230.10;;;13.70;99.90;;;;;;4360642;32;20651;-62
2021/10/27 02:22:42;;;;;;;236.00;225.53;;;13.70;99.90;;;;;;4360190;33;20160;-64
2021/10/27 02:25:09;;;;;;;239.07;228.00;;;13.70;99.90;;;;;;4359496;33;20226;-63
2021/10/27 02:27:36;;;;;;;255.00;243.53;;;13.70;99.90;;;;;;4359659;33;20215;-63
2021/10/27 02:30:04;;;;;;;237.03;226.37;;;13.70;99.90;;;;;;4360588;32;20200;-62
2021/10/27 02:32:31;;;;;;;253.63;242.23;;;13.60;99.90;;;;;;4361308;32;20350;-64
2021/10/27 02:34:58;;;;;;;258.50;246.57;;;13.60;99.90;;;;;;4359868;32;20247;-63
2021/10/27 02:37:25;;;;;;;236.97;226.80;;;13.60;99.90;;;;;;4361117;32;20266;-63
2021/10/27 02:39:52;;;;;;;249.87;238.73;;;13.60;99.90;;;;;;4356899;33;20149;-63
2021/10/27 02:42:19;;;;;;;251.03;239.53;;;13.60;99.90;;;;;;4358289;33;20160;-63
2021/10/27 02:44:45;;;;;;;230.73;220.47;;;13.50;99.90;;;;;;4361098;32;20203;-63
2021/10/27 02:47:14;;;;;;;239.67;228.77;;;13.50;99.90;;;;;;4359326;33;20230;-63
2021/10/27 02:49:40;;;;;;;236.53;226.20;;;13.60;99.90;;;;;;4359059;32;20156;-62
2021/10/27 02:52:07;;;;;;;233.63;223.30;;;13.50;99.90;;;;;;4361405;32;20224;-63
2021/10/27 02:54:34;;;;;;;229.10;218.73;;;13.60;99.90;;;;;;4361357;32;20661;-62
2021/10/27 02:57:01;;;;;;;221.27;211.57;;;13.70;99.90;;;;;;4361302;32;20179;-62
2021/10/27 02:59:28;;;;;;;194.30;185.50;;;13.70;99.90;;;;;;4358459;33;20504;-63
2021/10/27 03:01:55;;;;;;;201.07;191.57;;;13.80;99.90;;;;;;4359885;32;20255;-63
2021/10/27 03:04:23;;;;;;;205.97;196.97;;;13.80;99.90;;;;;;4359320;32;20509;-63
2021/10/27 03:06:49;;;;;;;188.13;179.43;;;13.80;99.90;;;;;;4359762;33;20230;-63
2021/10/27 03:09:16;;;;;;;194.73;185.83;;;13.80;99.90;;;;;;4359693;33;20221;-63
2021/10/27 03:11:43;;;;;;;169.97;162.33;;;13.90;99.90;;;;;;4359547;33;20242;-63
2021/10/27 03:14:10;;;;;;;167.97;159.67;;;13.90;99.90;;;;;;4359419;33;20169;-63
2021/10/27 03:16:37;;;;;;;171.10;163.30;;;13.90;99.90;;;;;;4359065;33;20170;-63
2021/10/27 03:19:04;;;;;;;155.33;148.10;;;13.90;99.90;;;;;;4361582;32;20224;-63
2021/10/27 03:21:32;;;;;;;150.37;143.27;;;13.90;99.90;;;;;;4360822;32;20586;-63
2021/10/27 03:24:00;;;;;;;150.87;144.30;;;13.90;99.90;;;;;;4359135;32;20239;-62
2021/10/27 03:26:27;;;;;;;148.33;141.47;;;14.00;99.90;;;;;;4359233;33;20202;-64
2021/10/27 03:28:54;;;;;;;149.27;142.57;;;14.00;99.90;;;;;;4359170;32;20173;-63
2021/10/27 03:31:21;;;;;;;142.87;136.13;;;14.00;99.90;;;;;;4356355;33;20151;-63
2021/10/27 03:33:48;;;;;;;148.67;141.47;;;14.00;99.90;;;;;;4359478;33;20147;-63
2021/10/27 03:36:15;;;;;;;151.67;145.00;;;14.00;99.90;;;;;;4360925;32;20603;-63
2021/10/27 03:38:43;;;;;;;146.07;139.83;;;14.10;99.90;;;;;;4359866;33;20192;-64
2021/10/27 03:41:10;;;;;;;143.40;136.83;;;14.10;99.90;;;;;;4361316;33;20181;-63
2021/10/27 03:43:37;;;;;;;141.80;135.43;;;14.00;99.90;;;;;;4361106;33;20149;-62
2021/10/27 03:46:04;;;;;;;138.57;132.23;;;14.00;99.90;;;;;;4359448;33;20224;-63
2021/10/27 03:48:31;;;;;;;145.20;138.30;;;14.00;99.90;;;;;;4360891;33;20583;-64
2021/10/27 03:50:58;;;;;;;139.53;133.47;;;14.00;99.90;;;;;;4354587;33;20477;-62
2021/10/27 03:53:25;;;;;;;143.23;136.83;;;14.00;99.90;;;;;;4359065;33;21917;-62
2021/10/27 03:55:54;;;;;;;152.00;145.37;;;14.00;99.90;;;;;;4359091;33;20194;-63
2021/10/27 03:58:21;;;;;;;144.43;138.07;;;14.00;99.90;;;;;;4360574;33;20142;-64
2021/10/27 04:00:48;;;;;;;142.10;135.13;;;14.00;99.90;;;;;;4359301;33;20490;-63
2021/10/27 04:03:21;;;;;;;137.00;131.00;;;14.00;99.90;;;;;;4358552;33;20169;-63
2021/10/27 04:05:48;;;;;;;140.63;134.20;;;14.00;99.90;;;;;;4359853;33;20172;-63
2021/10/27 04:08:14;;;;;;;153.63;146.77;;;14.00;99.90;;;;;;4359195;33;20255;-63
2021/10/27 04:10:41;;;;;;;148.13;141.37;;;13.90;99.90;;;;;;4357616;33;20238;-63
2021/10/27 04:13:10;;;;;;;149.70;142.97;;;14.00;99.90;;;;;;4360350;33;20203;-63
2021/10/27 04:15:36;;;;;;;142.57;136.10;;;13.90;99.90;;;;;;4360152;33;20223;-63
2021/10/27 04:18:03;;;;;;;146.63;139.90;;;13.90;99.90;;;;;;4360752;33;20588;-62
2021/10/27 04:20:30;;;;;;;136.27;129.37;;;13.90;99.90;;;;;;4360844;33;20168;-62
2021/10/27 04:22:57;;;;;;;161.03;153.53;;;13.90;99.90;;;;;;4359686;33;20160;-61
2021/10/27 04:25:24;;;;;;;142.47;135.90;;;13.80;99.90;;;;;;4359202;33;20154;-61
2021/10/27 04:27:51;;;;;;;154.83;147.30;;;13.90;99.90;;;;;;4360840;33;20172;-62
2021/10/27 04:30:20;;;;;;;147.03;140.23;;;13.90;99.90;;;;;;4359708;33;20224;-62
2021/10/27 04:32:46;;;;;;;156.90;149.43;;;13.90;99.90;;;;;;4359012;33;20266;-63
2021/10/27 04:35:13;;;;;;;142.80;136.57;;;14.00;99.90;;;;;;4356413;33;20545;-62
2021/10/27 04:37:44;;;;;;;150.33;143.57;;;13.90;99.90;;;;;;4359196;33;20191;-63
2021/10/27 04:40:13;;;;;;;143.70;137.10;;;14.00;99.90;;;;;;4356161;33;20152;-62
2021/10/27 04:42:40;;;;;;;138.47;132.10;;;14.00;99.90;;;;;;4361411;32;20145;-64
2021/10/27 04:45:08;;;;;;;140.27;134.03;;;14.00;99.90;;;;;;4361929;32;20636;-61
2021/10/27 04:47:37;;;;;;;133.40;127.13;;;14.00;99.90;;;;;;4362371;32;20173;-64
2021/10/27 04:50:06;;;;;;;131.90;125.83;;;14.00;99.90;;;;;;4357855;33;20212;-65
2021/10/27 04:52:33;;;;;;;134.83;128.37;;;14.00;99.90;;;;;;4361040;33;20311;-63
2021/10/27 04:55:00;;;;;;;134.47;128.17;;;14.00;99.90;;;;;;4362033;32;20640;-61
2021/10/27 04:57:27;;;;;;;135.43;128.87;;;13.90;99.90;;;;;;4360864;33;20207;-62
2021/10/27 04:59:53;;;;;;;140.73;134.07;;;14.00;99.90;;;;;;4360518;33;20233;-63
2021/10/27 05:02:20;;;;;;;137.77;131.40;;;14.00;99.90;;;;;;4361279;32;20599;-61
2021/10/27 05:04:48;;;;;;;143.17;137.07;;;14.00;99.90;;;;;;4361153;32;20218;-62
2021/10/27 05:07:15;;;;;;;124.13;118.27;;;14.00;99.90;;;;;;4362803;32;20176;-61
2021/10/27 05:09:43;;;;;;;123.93;118.27;;;14.00;99.90;;;;;;4361214;33;20174;-61
2021/10/27 05:12:10;;;;;;;131.03;124.83;;;14.00;99.90;;;;;;4361521;33;20622;-61
2021/10/27 05:14:38;;;;;;;125.77;119.97;;;14.00;99.90;;;;;;4360983;33;20267;-61
2021/10/27 05:17:09;;;;;;;124.43;118.87;;;14.00;99.90;;;;;;4360624;33;20145;-61
2021/10/27 05:19:36;;;;;;;122.37;116.57;;;14.00;99.90;;;;;;4360205;33;20148;-61
2021/10/27 05:22:04;;;;;;;117.73;112.13;;;14.00;99.90;;;;;;4358645;33;20160;-61
2021/10/27 05:24:31;;;;;;;122.10;116.37;;;14.00;99.90;;;;;;4359693;33;20162;-61
2021/10/27 05:26:58;;;;;;;127.57;121.27;;;14.00;99.90;;;;;;4362046;32;20160;-61
2021/10/27 05:29:25;;;;;;;118.23;113.07;;;14.00;99.90;;;;;;4361443;33;20179;-62
2021/10/27 05:31:52;;;;;;;128.07;122.37;;;14.00;99.90;;;;;;4359742;33;20149;-62
2021/10/27 05:34:19;;;;;;;124.27;118.67;;;14.00;99.90;;;;;;4358845;33;20182;-64
2021/10/27 05:36:47;;;;;;;114.43;109.17;;;14.00;99.90;;;;;;4359216;32;20625;-61
2021/10/27 05:39:15;;;;;;;118.70;113.40;;;14.00;99.90;;;;;;4360444;32;20144;-62
2021/10/27 05:41:44;;;;;;;118.30;113.00;;;14.00;99.90;;;;;;4360108;32;20184;-62
2021/10/27 05:44:11;;;;;;;118.53;112.97;;;14.00;99.90;;;;;;4359088;32;20141;-61
2021/10/27 05:46:39;;;;;;;125.90;120.27;;;14.00;99.90;;;;;;4358944;33;20212;-62
2021/10/27 05:49:11;;;;;;;118.30;112.87;;;14.00;99.90;;;;;;4359372;33;20149;-61
2021/10/27 05:51:43;;;;;;;116.40;111.23;;;14.00;99.90;;;;;;4358607;33;20148;-64
2021/10/27 05:56:55;;;;;;;108.70;103.53;;;14.00;99.90;;;;;;4360977;32;20171;-61
2021/10/27 05:59:22;;;;;;;111.73;106.60;;;14.00;99.90;;;;;;4361391;32;20156;-63
2021/10/27 06:01:49;;;;;;;112.40;107.33;;;14.00;99.90;;;;;;4360424;32;20163;-63
2021/10/27 06:04:17;;;;;;;117.10;111.57;;;14.00;99.90;;;;;;4361689;32;20191;-62
2021/10/27 06:06:45;;;;;;;110.40;105.43;;;14.10;99.90;;;;;;4361104;33;20145;-63
2021/10/27 06:09:12;;;;;;;108.60;103.40;;;14.10;99.90;;;;;;4360299;33;20544;-61
2021/10/27 06:11:39;;;;;;;103.87;99.07;;;14.10;99.90;;;;;;4361187;33;20581;-62
2021/10/27 06:14:07;;;;;;;104.97;99.87;;;14.10;99.90;;;;;;4361471;33;20136;-62
2021/10/27 06:16:34;;;;;;;111.77;106.57;;;14.00;99.90;;;;;;4361507;33;20136;-63
2021/10/27 06:19:01;;;;;;;112.93;107.23;;;14.10;99.90;;;;;;4363056;32;20203;-63
2021/10/27 06:21:28;;;;;;;109.40;104.30;;;14.00;99.90;;;;;;4361092;32;20200;-61
2021/10/27 06:23:55;;;;;;;112.50;107.13;;;14.00;99.90;;;;;;4361312;33;20217;-64
2021/10/27 06:26:23;;;;;;;112.83;107.57;;;14.00;99.90;;;;;;4362993;32;20146;-61
2021/10/27 06:28:59;;;;;;;117.03;111.93;;;14.10;99.90;;;;;;4361672;32;20549;-63
2021/10/27 06:31:32;;;;;;;117.53;111.83;;;14.00;99.90;;;;;;4363017;32;20137;-61
2021/10/27 06:34:04;;;;;;;117.73;112.63;;;14.00;99.90;;;;;;4362924;32;20221;-61
2021/10/27 06:36:37;;;;;;;113.83;108.57;;;14.00;99.90;;;;;;4361030;32;20195;-62
2021/10/27 06:47:22;;;;;;;113.80;108.87;;;14.00;99.90;;;;;;4362310;32;20210;-62
2021/10/27 06:49:48;;;;;;;104.47;99.67;;;14.00;99.90;;;;;;4360964;33;20223;-62
2021/10/27 06:52:15;;;;;;;120.37;114.73;;;14.00;99.90;;;;;;4361591;32;20149;-60
2021/10/27 06:54:44;;;;;;;103.80;98.90;;;14.10;99.90;;;;;;4360804;33;20187;-62
2021/10/27 06:57:11;;;;;;;106.80;101.47;;;14.10;99.90;;;;;;4362623;32;20231;-62
2021/10/27 06:59:39;;;;;;;112.73;107.57;;;14.10;99.90;;;;;;4360847;33;20200;-62
2021/10/27 07:15:45;;;;;;;108.60;103.70;;;14.20;99.90;;;;;;4361316;32;20588;-63
2021/10/27 07:18:12;;;;;;;105.13;100.30;;;14.10;99.90;;;;;;4360763;33;20145;-62
2021/10/27 07:20:40;;;;;;;108.60;103.70;;;14.20;99.90;;;;;;4287027;33;2385845;-62
2021/10/27 07:23:09;;;;;;;109.63;104.93;;;14.20;99.90;;;;;;4360589;33;20159;-63
2021/10/27 07:25:38;;;;;;;109.63;104.53;;;14.20;99.90;;;;;;4362292;32;20136;-62
2021/10/27 07:28:05;;;;;;;110.00;105.07;;;14.20;99.90;;;;;;4361261;32;20549;-64
2021/10/27 07:30:32;;;;;;;103.47;98.60;;;14.30;99.90;;;;;;4360991;32;20160;-61
2021/10/27 07:33:00;;;;;;;107.90;103.00;;;14.40;99.90;;;;;;4360727;33;20133;-61
2021/10/27 07:35:32;;;;;;;109.83;105.00;;;14.30;99.90;;;;;;4362031;32;20159;-62
2021/10/27 07:40:47;;;;;;;106.20;101.50;;;14.40;99.90;;;;;;4361976;33;20167;-62
2021/10/27 07:43:17;;;;;;;101.00;95.77;;;14.40;99.90;;;;;;4362237;33;20198;-61
2021/10/27 07:45:45;;;;;;;104.73;99.63;;;14.50;99.90;;;;;;4360431;33;20162;-62
2021/10/27 07:48:13;;;;;;;107.63;102.67;;;14.50;99.90;;;;;;4360364;33;20228;-63
2021/10/27 07:50:40;;;;;;;104.63;99.90;;;14.50;99.90;;;;;;4357977;33;20215;-62
2021/10/27 07:53:10;;;;;;;111.77;106.47;;;14.50;99.90;;;;;;4349765;33;20187;-62
2021/10/27 07:55:39;;;;;;;109.77;104.67;;;14.50;99.90;;;;;;4345580;33;20145;-63
2021/10/27 07:58:07;;;;;;;106.73;100.63;;;14.70;99.90;;;;;;4347181;33;20129;-62
2021/10/27 08:00:34;;;;;;;103.70;98.80;;;14.70;99.90;;;;;;4345656;33;20140;-63
2021/10/27 08:03:03;;;;;;;112.13;106.63;;;14.90;99.90;;;;;;4345603;33;20247;-61
2021/10/27 08:05:31;;;;;;;107.57;102.63;;;15.10;99.90;;;;;;4345737;33;20141;-64
2021/10/27 08:07:58;;;;;;;107.27;102.03;;;15.20;99.90;;;;;;4347085;33;20199;-64
2021/10/27 08:10:29;;;;;;;109.40;104.33;;;15.40;99.90;;;;;;4346195;33;20547;-63
2021/10/27 08:12:56;;;;;;;107.47;102.17;;;15.50;99.90;;;;;;4345855;33;20175;-60
2021/10/27 08:15:23;;;;;;;100.13;94.97;;;15.40;99.90;;;;;;4346121;33;20163;-62
2021/10/27 08:17:50;;;;;;;100.63;95.93;;;15.50;99.90;;;;;;4348367;33;20164;-61
2021/10/27 08:20:19;;;;;;;99.47;94.73;;;15.70;99.90;;;;;;4349971;33;20156;-64
2021/10/27 08:22:52;;;;;;;98.33;93.60;;;15.80;99.90;;;;;;4349501;33;20138;-62
2021/10/27 08:25:22;;;;;;;97.97;92.83;;;15.90;99.90;;;;;;4348891;33;20251;-61
2021/10/27 08:27:51;;;;;;;98.27;93.20;;;16.00;99.90;;;;;;4349809;33;20141;-62
2021/10/27 08:30:20;;;;;;;93.73;89.23;;;15.90;99.90;;;;;;4348575;33;20176;-62
2021/10/27 08:32:52;;;;;;;97.07;92.57;;;15.70;99.90;;;;;;4348235;33;20172;-62
2021/10/27 08:35:19;;;;;;;107.23;101.97;;;15.60;99.90;;;;;;4348111;33;20218;-63
2021/10/27 08:37:48;;;;;;;100.77;96.03;;;15.50;99.90;;;;;;4349683;33;20142;-63
2021/10/27 08:40:17;;;;;;;97.13;92.23;;;15.40;99.90;;;;;;4348541;33;20160;-61
2021/10/27 08:42:45;;;;;;;101.23;95.73;;;15.30;99.90;;;;;;4349722;33;20137;-64
2021/10/27 08:45:14;;;;;;;104.37;99.13;;;15.20;99.90;;;;;;4347968;33;20212;-64
2021/10/27 08:47:42;;;;;;;103.33;98.33;;;15.10;99.90;;;;;;4345417;33;20204;-65
2021/10/27 08:50:11;;;;;;;106.43;101.27;;;15.10;99.90;;;;;;4360916;32;20563;-63
2021/10/27 08:52:42;;;;;;;109.53;104.33;;;15.30;99.90;;;;;;4362469;32;20212;-64
2021/10/27 08:55:11;;;;;;;105.97;100.77;;;15.30;99.90;;;;;;4362396;32;20219;-64
2021/10/27 08:57:38;;;;;;;110.90;104.90;;;15.50;99.90;;;;;;4362596;33;20141;-62
2021/10/27 09:00:12;;;;;;;101.67;96.53;;;15.60;99.90;;;;;;4362551;32;20145;-63
2021/10/27 09:02:50;;;;;;;102.87;98.20;;;15.50;99.90;;;;;;4363346;32;20153;-62
2021/10/27 09:05:32;;;;;;;100.40;95.57;;;15.70;99.90;;;;;;4363616;32;20140;-62
2021/10/27 09:08:29;;;;;;;103.87;98.80;;;15.70;99.90;;;;;;4363224;32;20165;-65
2021/10/27 09:14:43;;;;;;;105.33;100.33;;;15.60;99.90;;;;;;4363797;32;20566;-65
2021/10/27 09:37:34;;;;;;;94.03;89.57;;;17.00;99.90;;;;;;4244941;33;20589;-63
2021/10/27 10:05:24;;;;;;;93.87;89.47;;;17.10;99.90;;;;;;4287923;33;20659;-65
2021/10/27 10:07:52;;;;;;;91.37;86.67;;;17.30;99.90;;;;;;4286248;33;20170;-63
2021/10/27 10:10:20;;;;;;;88.60;84.20;;;17.30;99.90;;;;;;4286787;33;20169;-63
2021/10/27 10:12:49;;;;;;;88.07;83.97;;;17.40;99.90;;;;;;4299159;33;20522;-65
2021/10/27 10:15:20;;;;;;;87.13;82.67;;;17.40;99.90;;;;;;4316720;33;20165;-62
2021/10/27 10:17:48;;;;;;;90.00;85.47;;;17.20;99.90;;;;;;4316180;33;20161;-63
2021/10/27 10:20:15;;;;;;;85.23;80.93;;;17.20;99.90;;;;;;4316330;33;20150;-64
2021/10/27 10:22:43;;;;;;;88.03;83.83;;;17.20;99.90;;;;;;4315442;33;20596;-64
2021/10/27 10:25:32;;;;;;;95.80;91.00;;;17.10;99.90;;;;;;4315488;33;20256;-62
2021/10/27 10:28:16;;;;;;;91.13;86.47;;;17.20;99.90;;;;;;4315678;33;20199;-62
2021/10/27 10:30:49;;;;;;;87.20;82.67;;;17.10;99.90;;;;;;4350234;32;20211;-62
2021/10/27 10:33:16;;;;;;;91.77;87.50;;;17.10;99.90;;;;;;4361779;32;20170;-65
2021/10/27 10:35:56;;;;;;;90.93;86.23;;;17.00;99.90;;;;;;4361188;32;20660;-65
2021/10/27 10:38:39;;;;;;;91.10;86.67;;;17.00;99.90;;;;;;4361383;32;20554;-63
2021/10/27 10:41:22;;;;;;;86.93;82.60;;;17.00;99.90;;;;;;4359287;33;20597;-65
2021/10/27 10:59:53;;;;;;;97.93;93.00;;;17.30;99.90;;;;;;4313978;33;20205;-61
2021/10/27 11:15:09;;;;;;;93.67;89.10;;;17.10;99.90;;;;;;4260364;33;20198;-62
2021/10/27 11:37:45;;;;;;;94.47;90.10;;;17.00;99.90;;;;;;4243668;33;20177;-62
2021/10/27 11:40:26;;;;;;;89.27;85.13;;;17.10;99.90;;;;;;4242654;33;20167;-62
2021/10/27 11:42:56;;;;;;;93.83;89.73;;;17.20;99.90;;;;;;4274293;33;20181;-62
2021/10/27 11:45:36;;;;;;;88.80;85.00;;;17.20;99.90;;;;;;4299517;33;20205;-62
2021/10/27 11:48:08;;;;;;;92.77;88.87;;;17.10;99.90;;;;;;4299579;33;20158;-62
2021/10/27 11:50:39;;;;;;;89.37;85.27;;;17.30;99.90;;;;;;4301283;33;20170;-62
2021/10/27 11:53:07;;;;;;;86.53;82.63;;;17.40;99.90;;;;;;4303782;33;20314;-62
2021/10/27 11:55:37;;;;;;;84.37;80.57;;;17.40;99.90;;;;;;4303154;33;20487;-62
2021/10/27 11:58:04;;;;;;;86.53;82.73;;;17.20;99.90;;;;;;4302658;33;20162;-62
2021/10/27 12:00:34;;;;;;;87.90;83.90;;;17.00;99.90;;;;;;4303567;33;20579;-62
2021/10/27 12:03:07;;;;;;;86.90;82.77;;;17.00;99.90;;;;;;4318844;33;20153;-62
2021/10/27 12:05:42;;;;;;;87.23;83.40;;;16.80;99.90;;;;;;4336235;33;20161;-62
2021/10/27 12:08:24;;;;;;;90.90;86.87;;;16.60;99.90;;;;;;4358838;32;20170;-62
2021/10/27 12:11:10;;;;;;;89.57;85.27;;;16.50;99.90;;;;;;4363220;33;20206;-62
2021/10/27 12:16:40;;;;;;;90.47;86.37;;;16.80;99.90;;;;;;4362181;32;20180;-62
2021/10/27 12:19:15;;;;;;;87.70;83.13;;;17.00;99.90;;;;;;4363540;32;20148;-62
2021/10/27 12:21:49;;;;;;;88.33;84.27;;;17.10;99.90;;;;;;4363592;32;20183;-62
2021/10/27 12:24:18;;;;;;;88.03;83.60;;;16.90;99.90;;;;;;4364606;32;20207;-62
2021/10/27 12:26:46;;;;;;;94.77;90.57;;;16.90;99.90;;;;;;4363015;33;20167;-62
2021/10/27 12:29:15;;;;;;;88.97;84.93;;;17.00;99.90;;;;;;4364613;32;20219;-62
2021/10/27 12:31:45;;;;;;;99.60;95.27;;;16.90;99.90;;;;;;4362869;33;20149;-62
2021/10/27 12:34:23;;;;;;;89.37;85.27;;;16.80;99.90;;;;;;4361406;33;20228;-62
2021/10/27 12:36:53;;;;;;;88.97;84.73;;;17.00;99.90;;;;;;4359352;33;20157;-62
2021/10/27 12:39:24;;;;;;;96.17;91.73;;;17.20;99.90;;;;;;4363508;32;20160;-62
2021/10/27 12:42:04;;;;;;;87.07;82.60;;;17.30;99.90;;;;;;4364330;32;20271;-62
2021/10/27 12:44:33;;;;;;;92.73;88.10;;;17.10;99.90;;;;;;4362813;33;20176;-62
2021/10/27 12:47:08;;;;;;;96.13;91.33;;;16.80;99.90;;;;;;4364238;32;20517;-62
2021/10/27 12:49:35;;;;;;;108.70;103.33;;;16.40;99.90;;;;;;4362179;33;20161;-62
2021/10/27 12:52:27;;;;;;;105.83;100.87;;;16.30;99.90;;;;;;4347936;33;20208;-62
2021/10/27 12:55:14;;;;;;;102.73;97.53;;;16.50;99.90;;;;;;4349495;33;20201;-62
2021/10/27 12:57:49;;;;;;;106.43;101.40;;;16.70;99.90;;;;;;4349292;33;20536;-62
2021/10/27 13:00:20;;;;;;;101.93;97.03;;;16.80;99.90;;;;;;4353428;32;20160;-62
2021/10/27 13:03:00;;;;;;;99.47;94.77;;;16.80;99.90;;;;;;4360563;32;20160;-62
2021/10/27 13:05:30;;;;;;;99.53;94.93;;;16.80;99.90;;;;;;4350675;32;20577;-62
2021/10/27 13:08:06;;;;;;;101.90;97.00;;;16.60;99.90;;;;;;4362979;32;20157;-62
2021/10/27 13:10:43;;;;;;;96.77;92.43;;;16.60;99.90;;;;;;4354816;33;20199;-62
2021/10/27 13:13:22;;;;;;;100.70;95.60;;;16.60;99.90;;;;;;4360280;32;20224;-63
2021/10/27 13:16:12;;;;;;;104.63;99.83;;;16.40;99.90;;;;;;4348896;33;20211;-63
2021/10/27 13:18:58;;;;;;;101.20;96.57;;;16.40;99.90;;;;;;4357176;32;20172;-64
2021/10/27 13:21:36;;;;;;;109.50;104.33;;;16.40;99.90;;;;;;4350385;32;20161;-64
2021/10/27 13:29:37;;;;;;;100.27;95.57;;;16.70;99.90;;;;;;4361119;32;20203;-62
2021/10/27 13:32:06;;;;;;;104.93;99.93;;;16.80;99.90;;;;;;4349548;33;20164;-64
2021/10/27 13:34:34;;;;;;;102.53;97.73;;;16.60;99.90;;;;;;4352756;33;20149;-61
2021/10/27 13:37:03;;;;;;;103.00;97.73;;;16.60;99.90;;;;;;4355248;32;20191;-62
2021/10/27 13:39:31;;;;;;;98.07;92.97;;;16.70;99.90;;;;;;4359723;32;20216;-62
2021/10/27 13:42:01;;;;;;;104.03;98.97;;;16.80;99.90;;;;;;4359359;33;20184;-63
2021/10/27 13:44:33;;;;;;;113.50;107.73;;;16.70;99.90;;;;;;4361461;32;20220;-63
2021/10/27 13:47:07;;;;;;;106.83;101.63;;;16.70;99.90;;;;;;4360935;32;20199;-62
2021/10/27 13:49:50;;;;;;;100.10;95.37;;;16.70;99.90;;;;;;4361968;32;20633;-64
2021/10/27 13:58:26;;;;;;;99.90;95.23;;;16.30;99.90;;;;;;4307634;33;20221;-62
2021/10/27 14:06:25;;;;;;;109.37;103.77;;;16.20;99.90;;;;;;4311133;33;20209;-63
2021/10/27 14:08:57;;;;;;;108.67;103.43;;;16.10;99.90;;;;;;4313764;33;20606;-62
2021/10/27 14:11:30;;;;;;;112.83;107.13;;;16.10;99.90;;;;;;4315176;33;20174;-64
2021/10/27 14:14:15;;;;;;;116.60;111.23;;;16.20;99.90;;;;;;4310078;33;20269;-64
2021/10/27 14:22:36;;;;;;;107.27;101.43;;;16.10;99.90;;;;;;4271639;33;20182;-63
2021/10/27 15:20:34;;;;;;;119.37;113.67;;;14.80;99.90;;;;;;4188088;34;20218;-64
2021/10/27 15:23:08;;;;;;;106.50;101.17;;;14.70;99.90;;;;;;4213473;34;20720;-63
2021/10/27 15:25:51;;;;;;;125.80;119.27;;;14.60;99.90;;;;;;4213261;34;20650;-64
2021/10/27 15:28:26;;;;;;;120.43;114.10;;;14.60;99.90;;;;;;4213987;34;20180;-65
2021/10/27 15:34:06;;;;;;;117.47;111.67;;;14.40;99.90;;;;;;4212260;34;20196;-62
2021/10/27 15:42:15;;;;;;;128.13;121.97;;;14.20;99.90;;;;;;4256647;33;20270;-65
2021/10/27 15:44:55;;;;;;;116.17;110.30;;;14.20;99.90;;;;;;4251940;33;20181;-62
2021/10/27 15:52:56;;;;;;;118.90;113.30;;;14.00;99.90;;;;;;4296634;33;20272;-62
2021/10/27 15:55:23;;;;;;;120.77;114.97;;;14.00;99.90;;;;;;4295853;33;20723;-63
2021/10/27 15:57:50;;;;;;;125.03;118.70;;;13.90;99.90;;;;;;4298287;33;20234;-64
2021/10/27 16:00:21;;;;;;;123.13;117.10;;;13.90;99.90;;;;;;4300009;33;20520;-65
2021/10/27 16:02:48;;;;;;;123.17;117.10;;;13.90;99.90;;;;;;4298630;33;20184;-63
2021/10/27 16:05:16;;;;;;;130.83;124.63;;;13.80;99.90;;;;;;4340532;33;20175;-62
2021/10/27 16:07:46;;;;;;;121.90;115.40;;;13.80;99.90;;;;;;4360984;33;20254;-61